createdAt,value
2018-07-17T00:00:17.212Z,99.90
2018-07-17T00:02:44.881Z,99.90
2018-07-17T00:05:12.544Z,99.90
2018-07-17T00:07:40.514Z,99.90
2018-07-17T00:10:09.110Z,99.90
2018-07-17T00:12:36.858Z,99.90
2018-07-17T00:15:04.598Z,99.90
2018-07-17T00:17:32.602Z,99.90
2018-07-17T00:20:00.215Z,99.90
2018-07-17T00:22:27.798Z,99.90
2018-07-17T00:24:55.536Z,99.90
2018-07-17T00:27:23.232Z,99.90
2018-07-17T00:29:50.907Z,99.90
2018-07-17T00:32:18.541Z,99.90
2018-07-17T00:34:46.203Z,99.90
2018-07-17T00:37:13.840Z,99.90
2018-07-17T00:39:41.421Z,99.90
2018-07-17T00:42:09.086Z,99.90
2018-07-17T00:44:36.749Z,99.90
2018-07-17T00:47:04.406Z,99.90
2018-07-17T00:49:32.212Z,99.90
2018-07-17T00:52:00.520Z,99.90
2018-07-17T00:54:28.643Z,99.90
2018-07-17T00:56:56.382Z,99.90
2018-07-17T00:59:24.041Z,99.90
2018-07-17T01:01:57.307Z,99.90
2018-07-17T01:04:30.448Z,99.90
2018-07-17T01:07:03.916Z,99.90
2018-07-17T01:09:37.189Z,99.90
2018-07-17T01:12:10.480Z,99.90
2018-07-17T01:14:55.839Z,99.90
2018-07-17T01:17:24.963Z,99.90
2018-07-17T01:19:52.615Z,99.90
2018-07-17T01:22:25.192Z,99.90
2018-07-17T01:24:54.039Z,99.90
2018-07-17T01:27:22.072Z,99.90
2018-07-17T01:29:49.941Z,99.90
2018-07-17T01:32:18.801Z,99.90
2018-07-17T01:34:46.467Z,99.90
2018-07-17T01:37:14.455Z,99.90
2018-07-17T01:39:42.088Z,99.90
2018-07-17T01:42:09.937Z,99.90
2018-07-17T01:44:37.646Z,99.90
2018-07-17T01:47:05.900Z,99.90
2018-07-17T01:49:33.789Z,99.90
2018-07-17T01:52:01.446Z,99.60
2018-07-17T01:54:29.189Z,99.90
2018-07-17T01:56:56.832Z,99.90
2018-07-17T01:59:24.530Z,99.90
2018-07-17T02:01:53.993Z,99.90
2018-07-17T02:04:21.782Z,99.90
2018-07-17T02:06:49.576Z,99.90
2018-07-17T02:09:17.307Z,99.90
2018-07-17T02:11:44.937Z,99.90
2018-07-17T02:14:12.616Z,99.90
2018-07-17T02:16:40.308Z,99.90
2018-07-17T02:19:07.885Z,99.90
2018-07-17T02:21:36.142Z,99.90
2018-07-17T02:24:03.781Z,99.90
2018-07-17T02:26:31.480Z,99.90
2018-07-17T02:28:59.327Z,99.80
2018-07-17T02:31:27.011Z,99.10
2018-07-17T02:33:54.644Z,98.80
2018-07-17T02:36:22.311Z,99.90
2018-07-17T02:38:49.898Z,99.90
2018-07-17T02:41:17.552Z,99.90
2018-07-17T02:43:45.197Z,99.90
2018-07-17T02:46:12.844Z,99.90
2018-07-17T02:48:40.434Z,99.90
2018-07-17T02:51:07.990Z,99.90
2018-07-17T02:53:35.729Z,99.90
2018-07-17T02:56:03.402Z,99.90
2018-07-17T02:58:31.080Z,99.90
2018-07-17T03:00:58.789Z,99.90
2018-07-17T03:03:26.477Z,99.90
2018-07-17T03:05:54.091Z,99.90
2018-07-17T03:08:21.794Z,99.90
2018-07-17T03:10:49.467Z,99.90
2018-07-17T03:13:17.227Z,99.90
2018-07-17T03:15:44.889Z,99.90
2018-07-17T03:18:12.558Z,99.90
2018-07-17T03:20:40.724Z,99.90
2018-07-17T03:23:08.502Z,99.90
2018-07-17T03:25:36.149Z,99.90
2018-07-17T03:28:03.822Z,99.90
2018-07-17T03:30:31.475Z,99.90
2018-07-17T03:32:59.571Z,99.90
2018-07-17T03:35:27.189Z,99.90
2018-07-17T03:37:54.816Z,99.90
2018-07-17T03:40:22.788Z,99.90
2018-07-17T03:42:50.412Z,99.90
2018-07-17T03:45:17.931Z,99.90
2018-07-17T03:47:45.558Z,99.90
2018-07-17T03:50:13.153Z,99.90
2018-07-17T03:52:41.943Z,99.90
2018-07-17T03:55:09.604Z,99.90
2018-07-17T03:57:37.260Z,99.90
2018-07-17T04:00:05.303Z,99.90
2018-07-17T04:02:38.013Z,99.90
2018-07-17T04:05:05.869Z,99.90
2018-07-17T04:07:33.497Z,99.90
2018-07-17T04:10:01.068Z,99.90
2018-07-17T04:12:28.713Z,99.90
2018-07-17T04:14:56.367Z,99.90
2018-07-17T04:17:24.164Z,99.90
2018-07-17T04:19:51.699Z,99.90
2018-07-17T04:22:19.507Z,99.90
2018-07-17T04:24:47.197Z,99.90
2018-07-17T04:27:14.931Z,99.90
2018-07-17T04:29:42.648Z,99.90
2018-07-17T04:32:10.621Z,99.90
2018-07-17T04:34:38.244Z,99.90
2018-07-17T04:37:06.106Z,99.90
2018-07-17T04:39:33.827Z,99.90
2018-07-17T04:42:01.527Z,99.90
2018-07-17T04:44:29.140Z,99.90
2018-07-17T04:46:56.788Z,99.90
2018-07-17T04:49:24.484Z,99.90
2018-07-17T04:51:52.017Z,99.90
2018-07-17T04:54:19.608Z,99.90
2018-07-17T04:56:47.728Z,99.90
2018-07-17T04:59:15.261Z,99.30
2018-07-17T05:01:42.944Z,98.40
2018-07-17T05:04:10.470Z,97.80
2018-07-17T05:06:38.067Z,97.40
2018-07-17T05:09:06.910Z,96.30
2018-07-17T05:11:34.469Z,96.50
2018-07-17T05:14:02.070Z,96.50
2018-07-17T05:16:29.919Z,95.90
2018-07-17T05:18:57.466Z,95.70
2018-07-17T05:21:25.224Z,96.80
2018-07-17T05:26:20.183Z,95.80
2018-07-17T05:28:47.823Z,95.30
2018-07-17T05:31:15.388Z,95.20
2018-07-17T05:33:42.985Z,95.20
2018-07-17T05:36:10.617Z,95.90
2018-07-17T05:38:38.184Z,95.60
2018-07-17T05:41:05.771Z,96.70
2018-07-17T05:43:33.459Z,97.10
2018-07-17T05:46:01.007Z,95.00
2018-07-17T05:48:28.792Z,94.30
2018-07-17T05:50:56.460Z,92.90
2018-07-17T05:53:24.600Z,92.20
2018-07-17T05:55:52.614Z,82.20
2018-07-17T05:58:20.379Z,72.70
2018-07-17T06:00:48.100Z,65.90
2018-07-17T06:03:15.793Z,60.30
2018-07-17T06:05:43.288Z,57.00
2018-07-17T06:08:10.981Z,54.90
2018-07-17T06:10:38.725Z,51.40
2018-07-17T06:13:10.301Z,49.00
2018-07-17T06:15:37.936Z,44.90
2018-07-17T06:18:05.518Z,44.40
2018-07-17T06:20:33.260Z,44.80
2018-07-17T06:23:00.935Z,45.60
2018-07-17T06:25:28.545Z,46.70
2018-07-17T06:27:56.625Z,44.80
2018-07-17T06:30:24.209Z,42.90
2018-07-17T06:32:51.789Z,39.80
2018-07-17T06:35:19.529Z,42.30
2018-07-17T06:37:47.904Z,41.20
2018-07-17T06:40:15.627Z,43.80
2018-07-17T06:42:43.199Z,44.10
2018-07-17T06:47:38.427Z,40.80
2018-07-17T06:50:06.201Z,41.00
2018-07-17T06:52:33.805Z,39.40
2018-07-17T06:55:01.408Z,40.00
2018-07-17T06:57:33.290Z,38.60
2018-07-17T07:00:01.132Z,37.60
2018-07-17T07:02:28.832Z,37.50
2018-07-17T07:04:56.682Z,38.10
2018-07-17T07:07:24.612Z,36.80
2018-07-17T07:09:52.257Z,36.00
2018-07-17T07:12:21.096Z,36.50
2018-07-17T07:14:48.877Z,37.50
2018-07-17T07:17:16.707Z,36.30
2018-07-17T07:19:44.364Z,39.00
2018-07-17T07:22:12.026Z,40.90
2018-07-17T07:24:39.696Z,41.20
2018-07-17T07:27:07.389Z,40.60
2018-07-17T07:29:35.058Z,39.50
2018-07-17T07:32:03.156Z,39.80
2018-07-17T07:34:30.821Z,40.30
2018-07-17T07:36:58.856Z,41.90
2018-07-17T07:39:26.705Z,44.60
2018-07-17T07:41:54.312Z,45.80
2018-07-17T07:44:22.134Z,50.30
2018-07-17T07:46:49.930Z,53.70
2018-07-17T07:49:17.615Z,55.60
2018-07-17T07:51:45.191Z,57.80
2018-07-17T07:54:12.965Z,58.90
2018-07-17T07:56:40.633Z,58.70
2018-07-17T07:59:08.493Z,57.60
2018-07-17T08:01:36.259Z,60.30
2018-07-17T08:04:04.647Z,60.80
2018-07-17T08:06:32.162Z,60.90
2018-07-17T08:08:59.910Z,61.20
2018-07-17T08:13:55.184Z,61.90
2018-07-17T08:16:23.050Z,59.00
2018-07-17T08:18:50.735Z,60.40
2018-07-17T08:21:19.331Z,58.40
2018-07-17T08:29:36.206Z,59.50
2018-07-17T08:40:33.122Z,55.50
2018-07-17T08:43:00.964Z,59.00
2018-07-17T08:45:28.797Z,56.90
2018-07-17T08:47:56.887Z,55.80
2018-07-17T08:52:52.097Z,54.50
2018-07-17T08:55:19.780Z,55.40
2018-07-17T08:57:48.691Z,54.60
2018-07-17T09:00:16.496Z,53.50
2018-07-17T09:02:44.804Z,54.70
2018-07-17T09:07:39.858Z,57.90
2018-07-17T09:10:08.988Z,55.20
2018-07-17T09:12:36.887Z,53.50
2018-07-17T09:17:33.851Z,48.30
2018-07-17T09:20:01.484Z,48.70
2018-07-17T09:22:29.529Z,48.50
2018-07-17T09:24:57.197Z,48.70
2018-07-17T09:27:24.907Z,49.60
2018-07-17T09:29:53.462Z,49.10
2018-07-17T09:32:21.553Z,48.40
2018-07-17T09:34:49.259Z,46.60
2018-07-17T09:37:16.821Z,47.00
2018-07-17T09:39:44.631Z,47.60
2018-07-17T09:42:12.759Z,46.50
2018-07-17T09:44:40.785Z,45.30
2018-07-17T09:47:08.388Z,46.70
2018-07-17T09:49:36.018Z,46.30
2018-07-17T09:52:03.892Z,45.10
2018-07-17T09:54:31.480Z,45.60
2018-07-17T09:56:59.093Z,45.30
2018-07-17T09:59:26.701Z,44.60
2018-07-17T10:02:00.104Z,43.10
2018-07-17T10:04:28.153Z,42.50
2018-07-17T10:06:55.716Z,41.20
2018-07-17T10:09:23.296Z,41.30
2018-07-17T10:11:50.892Z,40.00
2018-07-17T10:14:18.576Z,38.30
2018-07-17T10:16:46.100Z,39.40
2018-07-17T10:19:13.652Z,39.40
2018-07-17T10:21:41.312Z,38.40
2018-07-17T10:24:08.930Z,38.70
2018-07-17T10:26:36.643Z,37.10
2018-07-17T10:29:04.224Z,37.80
2018-07-17T10:31:32.106Z,39.10
2018-07-17T10:33:59.747Z,38.40
2018-07-17T10:36:28.457Z,36.80
2018-07-17T10:38:56.132Z,35.00
2018-07-17T10:41:23.817Z,35.60
2018-07-17T10:43:51.568Z,37.10
2018-07-17T10:46:19.344Z,37.60
2018-07-17T10:48:47.484Z,35.90
2018-07-17T10:51:15.213Z,35.90
2018-07-17T10:53:43.574Z,36.80
2018-07-17T10:56:11.473Z,35.70
2018-07-17T10:58:39.092Z,35.60
2018-07-17T11:01:06.753Z,35.30
2018-07-17T11:03:34.552Z,33.90
2018-07-17T11:06:02.225Z,34.80
2018-07-17T11:08:29.913Z,35.60
2018-07-17T11:10:57.446Z,35.10
2018-07-17T11:13:25.005Z,35.20
2018-07-17T11:15:52.676Z,33.80
2018-07-17T11:18:20.764Z,34.30
2018-07-17T11:20:48.496Z,33.20
2018-07-17T11:23:16.139Z,33.20
2018-07-17T11:25:43.731Z,33.20
2018-07-17T11:28:11.266Z,33.40
2018-07-17T11:30:39.370Z,33.00
2018-07-17T11:33:06.996Z,34.40
2018-07-17T11:35:34.624Z,34.10
2018-07-17T11:38:02.337Z,32.60
2018-07-17T11:40:29.947Z,32.40
2018-07-17T11:42:57.518Z,34.30
2018-07-17T11:45:26.055Z,33.70
2018-07-17T11:47:55.102Z,35.20
2018-07-17T11:50:23.262Z,32.30
2018-07-17T11:52:50.830Z,31.80
2018-07-17T11:55:18.369Z,32.30
2018-07-17T11:57:45.905Z,31.30
2018-07-17T12:00:13.851Z,31.10
2018-07-17T12:02:41.567Z,32.70
2018-07-17T12:05:09.383Z,30.00
2018-07-17T12:07:36.976Z,30.70
2018-07-17T12:10:04.771Z,30.20
2018-07-17T12:12:32.453Z,31.10
2018-07-17T12:15:00.199Z,31.70
2018-07-17T12:17:27.757Z,31.60
2018-07-17T12:19:55.497Z,32.90
2018-07-17T12:22:23.047Z,35.10
2018-07-17T12:24:50.685Z,36.60
2018-07-17T12:27:18.317Z,37.90
2018-07-17T12:29:45.950Z,36.60
2018-07-17T12:32:13.574Z,37.70
2018-07-17T12:34:41.782Z,37.20
2018-07-17T12:37:11.627Z,39.50
2018-07-17T12:39:39.171Z,40.00
2018-07-17T12:42:06.908Z,40.70
2018-07-17T12:44:34.550Z,42.00
2018-07-17T12:47:02.211Z,41.60
2018-07-17T12:49:30.321Z,39.60
2018-07-17T12:51:57.952Z,40.80
2018-07-17T12:54:25.562Z,41.60
2018-07-17T12:56:53.212Z,43.90
2018-07-17T12:59:20.703Z,50.50
2018-07-17T13:01:48.356Z,54.70
2018-07-17T13:04:15.967Z,59.50
2018-07-17T13:06:43.626Z,65.40
2018-07-17T13:09:11.279Z,69.00
2018-07-17T13:11:38.792Z,74.40
2018-07-17T13:14:06.484Z,73.90
2018-07-17T13:16:34.136Z,74.10
2018-07-17T13:21:30.268Z,72.00
2018-07-17T13:23:57.862Z,68.30
2018-07-17T13:26:25.818Z,71.30
2018-07-17T13:28:53.465Z,71.10
2018-07-17T13:31:21.093Z,68.40
2018-07-17T13:33:48.744Z,67.00
2018-07-17T13:36:16.295Z,65.30
2018-07-17T13:38:52.483Z,63.70
2018-07-17T13:44:08.013Z,64.10
2018-07-17T13:51:35.859Z,58.40
2018-07-17T13:54:03.499Z,57.60
2018-07-17T13:56:31.197Z,59.80
2018-07-17T13:58:58.829Z,56.40
2018-07-17T14:01:26.420Z,58.80
2018-07-17T14:03:54.082Z,59.70
2018-07-17T14:06:21.767Z,61.30
2018-07-17T14:08:49.376Z,59.60
2018-07-17T14:11:17.038Z,57.50
2018-07-17T14:13:44.614Z,54.60
2018-07-17T14:16:12.200Z,53.50
2018-07-17T14:18:39.805Z,53.60
2018-07-17T14:21:07.741Z,52.10
2018-07-17T14:23:35.655Z,51.10
2018-07-17T14:26:03.333Z,49.70
2018-07-17T14:28:31.150Z,51.00
2018-07-17T14:30:58.804Z,50.50
2018-07-17T14:33:26.366Z,49.40
2018-07-17T14:35:54.149Z,47.60
2018-07-17T14:40:49.151Z,49.00
2018-07-17T14:43:16.832Z,46.70
2018-07-17T14:45:44.412Z,43.80
2018-07-17T14:48:12.032Z,42.40
2018-07-17T14:50:39.783Z,42.90
2018-07-17T14:53:07.560Z,37.50
2018-07-17T14:55:35.163Z,35.70
2018-07-17T14:58:02.873Z,37.40
2018-07-17T15:00:30.434Z,33.10
2018-07-17T15:02:58.101Z,33.10
2018-07-17T15:05:25.643Z,32.40
2018-07-17T15:07:53.274Z,32.90
2018-07-17T15:10:20.960Z,32.70
2018-07-17T15:12:48.661Z,32.50
2018-07-17T15:15:16.243Z,34.10
2018-07-17T15:20:11.444Z,33.20
2018-07-17T15:22:39.080Z,34.00
2018-07-17T15:25:07.300Z,33.60
2018-07-17T15:27:34.970Z,32.90
2018-07-17T15:30:02.993Z,33.80
2018-07-17T15:32:30.597Z,34.40
2018-07-17T15:37:26.010Z,32.90
2018-07-17T15:39:53.652Z,32.70
2018-07-17T15:42:21.394Z,34.10
2018-07-17T15:44:48.948Z,30.30
2018-07-17T15:47:16.725Z,29.60
2018-07-17T15:49:44.231Z,29.70
2018-07-17T15:52:11.849Z,30.00
2018-07-17T15:54:39.547Z,30.90
2018-07-17T15:57:07.111Z,28.70
2018-07-17T15:59:34.971Z,29.00
2018-07-17T16:02:02.550Z,30.20
2018-07-17T16:04:30.092Z,29.40
2018-07-17T16:06:57.676Z,30.50
2018-07-17T16:09:25.235Z,32.30
2018-07-17T16:11:52.920Z,35.70
2018-07-17T16:14:21.020Z,37.80
2018-07-17T16:16:48.324Z,38.50
2018-07-17T16:19:15.935Z,39.70
2018-07-17T16:21:43.553Z,38.80
2018-07-17T16:24:11.117Z,37.80
2018-07-17T16:26:38.850Z,39.50
2018-07-17T16:29:06.384Z,39.20
2018-07-17T16:31:34.013Z,38.90
2018-07-17T16:34:02.878Z,38.30
2018-07-17T16:36:30.781Z,39.20
2018-07-17T16:38:58.507Z,37.40
2018-07-17T16:41:26.333Z,39.40
2018-07-17T16:43:54.709Z,40.20
2018-07-17T16:46:22.458Z,38.60
2018-07-17T16:48:50.448Z,37.30
2018-07-17T16:51:18.277Z,38.70
2018-07-17T16:53:46.004Z,38.00
2018-07-17T16:56:13.882Z,38.00
2018-07-17T16:58:41.862Z,36.90
2018-07-17T17:01:09.700Z,34.20
2018-07-17T17:03:37.493Z,35.90
2018-07-17T17:06:05.462Z,36.40
2018-07-17T17:08:39.776Z,35.60
2018-07-17T17:11:08.250Z,34.40
2018-07-17T17:13:35.951Z,34.30
2018-07-17T17:16:06.141Z,35.10
2018-07-17T17:18:33.988Z,35.20
2018-07-17T17:21:02.012Z,34.70
2018-07-17T17:23:29.706Z,33.80
2018-07-17T17:25:58.363Z,34.00
2018-07-17T17:28:26.053Z,35.20
2018-07-17T17:30:54.195Z,33.40
2018-07-17T17:33:21.912Z,33.80
2018-07-17T17:35:49.885Z,34.50
2018-07-17T17:38:17.631Z,35.50
2018-07-17T17:40:45.295Z,34.00
2018-07-17T17:43:12.905Z,36.00
2018-07-17T17:45:40.738Z,33.60
2018-07-17T17:48:08.708Z,35.00
2018-07-17T17:50:36.328Z,34.90
2018-07-17T17:53:04.468Z,35.30
2018-07-17T17:55:32.921Z,35.10
2018-07-17T17:58:00.806Z,35.20
2018-07-17T18:00:29.775Z,35.20
2018-07-17T18:02:57.819Z,35.20
2018-07-17T18:05:25.504Z,35.00
2018-07-17T18:07:53.415Z,35.40
2018-07-17T18:10:21.104Z,35.30
2018-07-17T18:12:48.824Z,35.90
2018-07-17T18:15:16.825Z,36.00
2018-07-17T18:17:44.595Z,36.50
2018-07-17T18:20:12.988Z,37.00
2018-07-17T18:22:40.838Z,37.70
2018-07-17T18:25:08.566Z,37.90
2018-07-17T18:27:36.387Z,39.10
2018-07-17T18:30:04.328Z,39.80
2018-07-17T18:32:31.964Z,41.20
2018-07-17T18:34:59.732Z,41.00
2018-07-17T18:37:27.403Z,42.30
2018-07-17T18:39:55.053Z,44.00
2018-07-17T18:42:22.833Z,46.10
2018-07-17T18:44:50.514Z,46.20
2018-07-17T18:47:18.174Z,46.40
2018-07-17T18:49:46.055Z,47.10
2018-07-17T18:52:13.722Z,48.70
2018-07-17T18:54:41.564Z,50.10
2018-07-17T18:57:09.415Z,50.50
2018-07-17T18:59:37.209Z,52.10
2018-07-17T19:02:05.265Z,53.10
2018-07-17T19:04:33.001Z,53.10
2018-07-17T19:07:00.991Z,52.90
2018-07-17T19:09:28.747Z,55.40
2018-07-17T19:11:56.618Z,55.70
2018-07-17T19:14:24.379Z,55.80
2018-07-17T19:16:52.130Z,57.40
2018-07-17T19:19:19.951Z,57.20
2018-07-17T19:21:47.925Z,57.40
2018-07-17T19:26:43.420Z,57.40
2018-07-17T19:31:38.965Z,59.00
2018-07-17T19:34:06.831Z,58.50
2018-07-17T19:36:34.776Z,59.70
2018-07-17T19:39:03.238Z,59.70
2018-07-17T19:41:30.958Z,60.00
2018-07-17T19:43:58.715Z,60.80
2018-07-17T19:48:53.970Z,60.90
2018-07-17T19:51:21.658Z,61.30
2018-07-17T19:53:49.256Z,61.50
2018-07-17T19:56:16.855Z,62.50
2018-07-17T19:58:45.494Z,60.50
2018-07-17T20:01:13.272Z,61.30
2018-07-17T20:03:41.082Z,61.60
2018-07-17T20:06:08.895Z,61.50
2018-07-17T20:11:05.325Z,60.80
2018-07-17T20:13:33.014Z,61.60
2018-07-17T20:16:00.735Z,62.10
2018-07-17T20:18:28.462Z,62.50
2018-07-17T20:20:57.070Z,63.10
2018-07-17T20:23:38.056Z,63.10
2018-07-17T20:26:08.865Z,63.80
2018-07-17T20:28:50.283Z,62.90
2018-07-17T20:31:31.118Z,63.00
2018-07-17T20:33:58.836Z,63.70
2018-07-17T20:36:26.770Z,64.10
2018-07-17T20:38:54.499Z,64.10
2018-07-17T20:41:22.160Z,65.70
2018-07-17T20:43:50.273Z,65.80
2018-07-17T20:46:18.741Z,65.50
2018-07-17T20:48:46.564Z,65.60
2018-07-17T20:51:14.683Z,65.50
2018-07-17T20:53:42.479Z,65.30
2018-07-17T20:56:10.995Z,65.20
2018-07-17T20:58:40.825Z,65.10
2018-07-17T21:01:08.731Z,64.40
2018-07-17T21:03:36.754Z,63.90
2018-07-17T21:06:04.895Z,63.50
2018-07-17T21:08:32.864Z,64.10
2018-07-17T21:11:00.769Z,62.90
2018-07-17T21:13:28.638Z,63.10
2018-07-17T21:15:56.294Z,64.20
2018-07-17T21:18:24.348Z,65.30
2018-07-17T21:20:52.094Z,65.60
2018-07-17T21:23:27.162Z,66.50
2018-07-17T21:25:55.054Z,66.60
2018-07-17T21:28:22.866Z,67.40
2018-07-17T21:30:50.580Z,68.00
2018-07-17T21:33:18.303Z,67.90
2018-07-17T21:35:46.083Z,68.00
2018-07-17T21:38:14.336Z,67.80
2018-07-17T21:40:41.991Z,67.20
2018-07-17T21:43:09.711Z,67.80
2018-07-17T21:45:37.732Z,68.60
2018-07-17T21:48:05.544Z,69.70
2018-07-17T21:50:33.268Z,68.50
2018-07-17T21:53:00.996Z,68.00
2018-07-17T21:55:28.719Z,68.20
2018-07-17T21:57:57.219Z,69.40
2018-07-17T22:00:25.086Z,69.50
2018-07-17T22:10:17.267Z,71.70
2018-07-17T22:12:45.010Z,71.20
2018-07-17T22:15:12.926Z,70.90
2018-07-17T22:17:40.587Z,71.80
2018-07-17T22:20:08.257Z,72.40
2018-07-17T22:22:36.012Z,73.30
2018-07-17T22:25:04.144Z,73.40
2018-07-17T22:27:32.161Z,74.30
2018-07-17T22:30:00.038Z,74.60
2018-07-17T22:32:27.856Z,74.60
2018-07-17T22:34:55.561Z,75.20
2018-07-17T22:37:23.301Z,75.20
2018-07-17T22:39:52.792Z,75.40
2018-07-17T22:42:21.008Z,75.20
2018-07-17T22:44:48.676Z,75.70
2018-07-17T22:47:16.406Z,75.70
2018-07-17T22:49:44.168Z,76.00
2018-07-17T22:52:12.390Z,75.60
2018-07-17T22:54:40.179Z,75.80
2018-07-17T22:57:07.925Z,76.00
2018-07-17T22:59:35.711Z,77.30
2018-07-17T23:02:03.532Z,77.50
2018-07-17T23:04:31.253Z,78.30
2018-07-17T23:06:59.030Z,78.50
2018-07-17T23:09:26.896Z,78.50
2018-07-17T23:11:54.655Z,78.80
2018-07-17T23:14:22.821Z,79.10
2018-07-17T23:16:50.519Z,79.90
2018-07-17T23:19:18.225Z,80.20
2018-07-17T23:21:45.879Z,81.10
2018-07-17T23:24:13.569Z,82.20
2018-07-17T23:26:41.341Z,81.90
2018-07-17T23:29:09.007Z,82.20
2018-07-17T23:31:37.834Z,82.50
2018-07-17T23:34:25.071Z,82.90
2018-07-17T23:46:07.907Z,83.10
2018-07-17T23:48:42.937Z,84.60
2018-07-17T23:51:10.649Z,83.90
2018-07-17T23:53:39.887Z,83.10
2018-07-17T23:56:07.528Z,82.80
2018-07-17T23:58:35.142Z,83.30
